sensor_id;sensor_type;location;lat;lon;timestamp;temperature;humidity
7562;DHT22;3822;48.784;9.174;2022-12-07T00:01:41;6.50;95.10
7562;DHT22;3822;48.784;9.174;2022-12-07T00:04:12;6.50;95.10
7562;DHT22;3822;48.784;9.174;2022-12-07T00:06:41;6.50;95.10
7562;DHT22;3822;48.784;9.174;2022-12-07T00:09:14;6.50;95.10
7562;DHT22;3822;48.784;9.174;2022-12-07T00:11:43;6.60;95.10
7562;DHT22;3822;48.784;9.174;2022-12-07T00:14:16;6.60;95.40
7562;DHT22;3822;48.784;9.174;2022-12-07T00:16:43;6.60;95.10
7562;DHT22;3822;48.784;9.174;2022-12-07T00:19:12;6.60;95.10
7562;DHT22;3822;48.784;9.174;2022-12-07T00:21:39;7.20;95.30
7562;DHT22;3822;48.784;9.174;2022-12-07T00:24:06;6.60;95.30
7562;DHT22;3822;48.784;9.174;2022-12-07T00:26:35;6.60;95.00
7562;DHT22;3822;48.784;9.174;2022-12-07T00:29:05;7.10;95.20
7562;DHT22;3822;48.784;9.174;2022-12-07T00:31:52;6.60;95.00
7562;DHT22;3822;48.784;9.174;2022-12-07T00:34:20;6.60;94.90
7562;DHT22;3822;48.784;9.174;2022-12-07T00:36:48;7.30;95.20
7562;DHT22;3822;48.784;9.174;2022-12-07T00:39:15;6.60;94.90
7562;DHT22;3822;48.784;9.174;2022-12-07T00:41:42;6.60;94.80
7562;DHT22;3822;48.784;9.174;2022-12-07T00:44:09;7.20;95.40
7562;DHT22;3822;48.784;9.174;2022-12-07T00:46:35;6.60;94.80
7562;DHT22;3822;48.784;9.174;2022-12-07T00:49:02;6.60;94.80
7562;DHT22;3822;48.784;9.174;2022-12-07T00:51:29;6.60;94.80
7562;DHT22;3822;48.784;9.174;2022-12-07T00:53:55;6.50;94.70
7562;DHT22;3822;48.784;9.174;2022-12-07T00:56:24;6.50;94.70
7562;DHT22;3822;48.784;9.174;2022-12-07T00:58:59;5.00;94.10
7562;DHT22;3822;48.784;9.174;2022-12-07T01:01:29;6.50;94.60
7562;DHT22;3822;48.784;9.174;2022-12-07T01:03:57;6.50;94.60
7562;DHT22;3822;48.784;9.174;2022-12-07T01:06:25;6.50;94.60
7562;DHT22;3822;48.784;9.174;2022-12-07T01:09:13;6.60;94.60
7562;DHT22;3822;48.784;9.174;2022-12-07T01:11:40;6.60;94.50
7562;DHT22;3822;48.784;9.174;2022-12-07T01:14:25;6.60;94.50
7562;DHT22;3822;48.784;9.174;2022-12-07T01:16:54;6.60;94.50
7562;DHT22;3822;48.784;9.174;2022-12-07T01:19:21;6.50;94.30
7562;DHT22;3822;48.784;9.174;2022-12-07T01:21:48;6.50;94.40
7562;DHT22;3822;48.784;9.174;2022-12-07T01:24:14;5.20;93.80
7562;DHT22;3822;48.784;9.174;2022-12-07T01:26:41;6.50;94.30
7562;DHT22;3822;48.784;9.174;2022-12-07T01:29:07;6.50;94.30
7562;DHT22;3822;48.784;9.174;2022-12-07T01:31:34;6.60;94.30
7562;DHT22;3822;48.784;9.174;2022-12-07T01:34:00;6.50;94.30
7562;DHT22;3822;48.784;9.174;2022-12-07T01:36:30;6.50;94.20
7562;DHT22;3822;48.784;9.174;2022-12-07T01:39:01;6.60;94.20
7562;DHT22;3822;48.784;9.174;2022-12-07T01:41:33;6.50;94.20
7562;DHT22;3822;48.784;9.174;2022-12-07T01:44:14;6.50;94.20
7562;DHT22;3822;48.784;9.174;2022-12-07T01:46:44;6.70;94.20
7562;DHT22;3822;48.784;9.174;2022-12-07T01:49:22;6.50;94.10
7562;DHT22;3822;48.784;9.174;2022-12-07T01:52:03;6.50;94.40
7562;DHT22;3822;48.784;9.174;2022-12-07T01:54:57;6.50;94.10
7562;DHT22;3822;48.784;9.174;2022-12-07T01:57:26;6.50;94.10
7562;DHT22;3822;48.784;9.174;2022-12-07T01:59:54;6.40;94.00
7562;DHT22;3822;48.784;9.174;2022-12-07T02:02:30;6.40;94.00
7562;DHT22;3822;48.784;9.174;2022-12-07T02:05:00;6.40;94.00
7562;DHT22;3822;48.784;9.174;2022-12-07T02:07:28;6.60;94.10
7562;DHT22;3822;48.784;9.174;2022-12-07T02:09:55;6.40;94.00
7562;DHT22;3822;48.784;9.174;2022-12-07T02:12:24;6.40;94.00
7562;DHT22;3822;48.784;9.174;2022-12-07T02:14:51;7.60;94.50
7562;DHT22;3822;48.784;9.174;2022-12-07T02:31:43;6.40;94.00
7562;DHT22;3822;48.784;9.174;2022-12-07T02:34:44;7.90;94.60
7562;DHT22;3822;48.784;9.174;2022-12-07T02:40:00;6.40;94.10
7562;DHT22;3822;48.784;9.174;2022-12-07T02:42:36;6.60;94.20
7562;DHT22;3822;48.784;9.174;2022-12-07T02:45:21;6.50;94.20
7562;DHT22;3822;48.784;9.174;2022-12-07T02:47:51;6.40;94.10
7562;DHT22;3822;48.784;9.174;2022-12-07T02:50:20;6.40;94.10
7562;DHT22;3822;48.784;9.174;2022-12-07T02:52:47;6.30;94.10
7562;DHT22;3822;48.784;9.174;2022-12-07T02:55:16;6.30;94.10
7562;DHT22;3822;48.784;9.174;2022-12-07T02:57:53;6.40;94.10
7562;DHT22;3822;48.784;9.174;2022-12-07T03:00:23;6.30;94.00
7562;DHT22;3822;48.784;9.174;2022-12-07T03:02:53;6.40;94.10
7562;DHT22;3822;48.784;9.174;2022-12-07T03:08:59;6.40;94.10
7562;DHT22;3822;48.784;9.174;2022-12-07T03:11:47;6.40;94.00
7562;DHT22;3822;48.784;9.174;2022-12-07T03:14:31;6.40;94.10
7562;DHT22;3822;48.784;9.174;2022-12-07T03:17:24;6.40;94.00
7562;DHT22;3822;48.784;9.174;2022-12-07T03:19:57;6.40;94.00
7562;DHT22;3822;48.784;9.174;2022-12-07T03:22:28;6.40;94.30
7562;DHT22;3822;48.784;9.174;2022-12-07T03:24:59;6.50;94.00
7562;DHT22;3822;48.784;9.174;2022-12-07T03:27:34;6.40;94.00
7562;DHT22;3822;48.784;9.174;2022-12-07T03:30:11;6.40;94.00
7562;DHT22;3822;48.784;9.174;2022-12-07T03:32:45;6.40;93.90
7562;DHT22;3822;48.784;9.174;2022-12-07T03:35:24;6.40;93.90
7562;DHT22;3822;48.784;9.174;2022-12-07T03:38:08;6.30;93.80
7562;DHT22;3822;48.784;9.174;2022-12-07T03:41:01;6.30;93.80
7562;DHT22;3822;48.784;9.174;2022-12-07T03:43:30;6.30;93.80
7562;DHT22;3822;48.784;9.174;2022-12-07T03:48:35;6.20;93.70
7562;DHT22;3822;48.784;9.174;2022-12-07T03:54:02;6.20;93.70
7562;DHT22;3822;48.784;9.174;2022-12-07T03:56:37;6.20;93.80
7562;DHT22;3822;48.784;9.174;2022-12-07T03:59:04;6.20;93.70
7562;DHT22;3822;48.784;9.174;2022-12-07T04:01:31;6.60;93.90
7562;DHT22;3822;48.784;9.174;2022-12-07T04:03:58;6.20;93.70
7562;DHT22;3822;48.784;9.174;2022-12-07T04:06:24;6.70;93.90
7562;DHT22;3822;48.784;9.174;2022-12-07T04:08:51;6.10;93.60
7562;DHT22;3822;48.784;9.174;2022-12-07T04:11:17;6.10;93.90
7562;DHT22;3822;48.784;9.174;2022-12-07T04:13:44;6.10;93.70
7562;DHT22;3822;48.784;9.174;2022-12-07T04:16:29;6.10;93.60
7562;DHT22;3822;48.784;9.174;2022-12-07T04:18:56;6.10;93.60
7562;DHT22;3822;48.784;9.174;2022-12-07T04:21:22;6.00;93.60
7562;DHT22;3822;48.784;9.174;2022-12-07T04:23:48;6.10;93.60
7562;DHT22;3822;48.784;9.174;2022-12-07T04:26:15;6.00;93.50
7562;DHT22;3822;48.784;9.174;2022-12-07T04:28:42;6.00;93.50
7562;DHT22;3822;48.784;9.174;2022-12-07T04:31:09;6.00;93.60
7562;DHT22;3822;48.784;9.174;2022-12-07T04:33:36;6.00;93.50
7562;DHT22;3822;48.784;9.174;2022-12-07T04:36:07;5.90;93.50
7562;DHT22;3822;48.784;9.174;2022-12-07T04:38:38;5.90;93.50
7562;DHT22;3822;48.784;9.174;2022-12-07T04:41:08;6.20;93.70
7562;DHT22;3822;48.784;9.174;2022-12-07T04:43:35;6.00;93.60
7562;DHT22;3822;48.784;9.174;2022-12-07T04:46:02;6.00;93.50
7562;DHT22;3822;48.784;9.174;2022-12-07T04:48:29;6.00;93.50
7562;DHT22;3822;48.784;9.174;2022-12-07T04:50:56;6.00;93.50
7562;DHT22;3822;48.784;9.174;2022-12-07T04:53:23;6.00;93.40
7562;DHT22;3822;48.784;9.174;2022-12-07T04:55:50;6.10;93.30
7562;DHT22;3822;48.784;9.174;2022-12-07T04:58:16;6.10;93.10
7562;DHT22;3822;48.784;9.174;2022-12-07T05:00:44;6.10;93.00
7562;DHT22;3822;48.784;9.174;2022-12-07T05:03:11;6.10;92.90
7562;DHT22;3822;48.784;9.174;2022-12-07T05:05:40;6.10;92.70
7562;DHT22;3822;48.784;9.174;2022-12-07T05:08:07;6.10;92.60
7562;DHT22;3822;48.784;9.174;2022-12-07T05:10:34;6.20;92.60
7562;DHT22;3822;48.784;9.174;2022-12-07T05:13:00;6.50;92.60
7562;DHT22;3822;48.784;9.174;2022-12-07T05:15:26;7.10;92.70
7562;DHT22;3822;48.784;9.174;2022-12-07T05:17:53;6.20;92.20
7562;DHT22;3822;48.784;9.174;2022-12-07T05:20:20;6.20;92.10
7562;DHT22;3822;48.784;9.174;2022-12-07T05:22:46;6.20;92.00
7562;DHT22;3822;48.784;9.174;2022-12-07T05:25:13;6.40;91.90
7562;DHT22;3822;48.784;9.174;2022-12-07T05:27:39;6.30;91.70
7562;DHT22;3822;48.784;9.174;2022-12-07T05:30:06;6.30;91.60
7562;DHT22;3822;48.784;9.174;2022-12-07T05:32:33;6.30;91.50
7562;DHT22;3822;48.784;9.174;2022-12-07T05:35:00;6.30;91.50
7562;DHT22;3822;48.784;9.174;2022-12-07T05:37:26;6.30;91.40
7562;DHT22;3822;48.784;9.174;2022-12-07T05:39:53;6.30;91.30
7562;DHT22;3822;48.784;9.174;2022-12-07T05:42:19;6.30;91.30
7562;DHT22;3822;48.784;9.174;2022-12-07T05:44:46;7.00;91.60
7562;DHT22;3822;48.784;9.174;2022-12-07T05:47:14;6.30;91.40
7562;DHT22;3822;48.784;9.174;2022-12-07T05:49:41;6.30;91.40
7562;DHT22;3822;48.784;9.174;2022-12-07T05:52:08;6.20;91.30
7562;DHT22;3822;48.784;9.174;2022-12-07T05:54:34;6.20;91.40
7562;DHT22;3822;48.784;9.174;2022-12-07T05:57:01;6.20;91.50
7562;DHT22;3822;48.784;9.174;2022-12-07T05:59:27;6.60;91.60
7562;DHT22;3822;48.784;9.174;2022-12-07T06:02:16;6.30;91.50
7562;DHT22;3822;48.784;9.174;2022-12-07T06:04:45;6.20;91.40
7562;DHT22;3822;48.784;9.174;2022-12-07T06:07:15;6.20;91.40
7562;DHT22;3822;48.784;9.174;2022-12-07T06:09:42;6.30;91.40
7562;DHT22;3822;48.784;9.174;2022-12-07T06:12:12;6.20;91.40
7562;DHT22;3822;48.784;9.174;2022-12-07T06:14:58;7.40;91.90
7562;DHT22;3822;48.784;9.174;2022-12-07T06:17:25;6.20;91.40
7562;DHT22;3822;48.784;9.174;2022-12-07T06:19:51;6.20;91.40
7562;DHT22;3822;48.784;9.174;2022-12-07T06:22:18;6.20;91.40
7562;DHT22;3822;48.784;9.174;2022-12-07T06:24:44;6.20;91.40
7562;DHT22;3822;48.784;9.174;2022-12-07T06:27:11;6.20;91.30
7562;DHT22;3822;48.784;9.174;2022-12-07T06:29:38;5.00;90.90
7562;DHT22;3822;48.784;9.174;2022-12-07T06:32:04;6.20;91.30
7562;DHT22;3822;48.784;9.174;2022-12-07T06:34:31;6.60;91.50
7562;DHT22;3822;48.784;9.174;2022-12-07T06:36:57;6.20;91.30
7562;DHT22;3822;48.784;9.174;2022-12-07T06:39:26;6.20;91.20
7562;DHT22;3822;48.784;9.174;2022-12-07T06:41:53;6.20;91.20
7562;DHT22;3822;48.784;9.174;2022-12-07T06:44:21;6.10;91.30
7562;DHT22;3822;48.784;9.174;2022-12-07T06:46:49;6.20;91.40
7562;DHT22;3822;48.784;9.174;2022-12-07T06:49:15;6.20;91.30
7562;DHT22;3822;48.784;9.174;2022-12-07T06:51:43;6.10;91.30
7562;DHT22;3822;48.784;9.174;2022-12-07T06:54:12;6.20;91.30
7562;DHT22;3822;48.784;9.174;2022-12-07T06:56:40;6.20;91.20
7562;DHT22;3822;48.784;9.174;2022-12-07T06:59:07;6.20;91.20
7562;DHT22;3822;48.784;9.174;2022-12-07T07:01:34;6.20;91.20
7562;DHT22;3822;48.784;9.174;2022-12-07T07:04:02;6.10;91.00
7562;DHT22;3822;48.784;9.174;2022-12-07T07:06:28;6.10;91.00
7562;DHT22;3822;48.784;9.174;2022-12-07T07:08:55;6.10;91.00
7562;DHT22;3822;48.784;9.174;2022-12-07T07:11:21;6.10;91.00
7562;DHT22;3822;48.784;9.174;2022-12-07T07:13:48;7.90;91.60
7562;DHT22;3822;48.784;9.174;2022-12-07T07:16:15;6.10;90.90
7562;DHT22;3822;48.784;9.174;2022-12-07T07:18:41;6.10;90.90
7562;DHT22;3822;48.784;9.174;2022-12-07T07:21:08;6.20;90.90
7562;DHT22;3822;48.784;9.174;2022-12-07T07:23:34;6.20;90.90
7562;DHT22;3822;48.784;9.174;2022-12-07T07:26:01;6.10;90.80
7562;DHT22;3822;48.784;9.174;2022-12-07T07:28:27;6.70;91.00
7562;DHT22;3822;48.784;9.174;2022-12-07T07:30:54;6.20;90.80
7562;DHT22;3822;48.784;9.174;2022-12-07T07:33:20;6.10;90.80
7562;DHT22;3822;48.784;9.174;2022-12-07T07:35:47;6.20;90.80
7562;DHT22;3822;48.784;9.174;2022-12-07T07:38:13;6.20;90.80
7562;DHT22;3822;48.784;9.174;2022-12-07T07:40:40;6.20;90.70
7562;DHT22;3822;48.784;9.174;2022-12-07T07:43:07;6.20;90.60
7562;DHT22;3822;48.784;9.174;2022-12-07T07:45:33;6.20;90.60
7562;DHT22;3822;48.784;9.174;2022-12-07T07:48:00;6.20;90.60
7562;DHT22;3822;48.784;9.174;2022-12-07T07:50:26;6.20;90.60
7562;DHT22;3822;48.784;9.174;2022-12-07T07:52:53;6.20;90.50
7562;DHT22;3822;48.784;9.174;2022-12-07T07:55:19;6.20;90.50
7562;DHT22;3822;48.784;9.174;2022-12-07T07:57:46;6.20;90.50
7562;DHT22;3822;48.784;9.174;2022-12-07T08:00:14;6.20;90.40
7562;DHT22;3822;48.784;9.174;2022-12-07T08:02:42;6.20;90.40
7562;DHT22;3822;48.784;9.174;2022-12-07T08:05:12;6.70;90.50
7562;DHT22;3822;48.784;9.174;2022-12-07T08:07:40;6.40;90.30
7562;DHT22;3822;48.784;9.174;2022-12-07T08:10:07;6.20;90.10
7562;DHT22;3822;48.784;9.174;2022-12-07T08:12:38;6.20;90.10
7562;DHT22;3822;48.784;9.174;2022-12-07T08:15:29;6.20;90.00
7562;DHT22;3822;48.784;9.174;2022-12-07T08:17:56;6.20;89.70
7562;DHT22;3822;48.784;9.174;2022-12-07T08:20:23;6.10;89.70
7562;DHT22;3822;48.784;9.174;2022-12-07T08:22:50;6.10;89.70
7562;DHT22;3822;48.784;9.174;2022-12-07T08:25:17;6.20;89.70
7562;DHT22;3822;48.784;9.174;2022-12-07T08:27:43;6.10;89.30
7562;DHT22;3822;48.784;9.174;2022-12-07T08:30:10;6.10;89.00
7562;DHT22;3822;48.784;9.174;2022-12-07T08:32:37;6.10;89.10
7562;DHT22;3822;48.784;9.174;2022-12-07T08:35:04;6.70;89.70
7562;DHT22;3822;48.784;9.174;2022-12-07T08:37:32;6.10;89.30
7562;DHT22;3822;48.784;9.174;2022-12-07T08:39:59;6.10;89.30
7562;DHT22;3822;48.784;9.174;2022-12-07T08:42:25;6.20;89.30
7562;DHT22;3822;48.784;9.174;2022-12-07T08:44:53;6.10;89.20
7562;DHT22;3822;48.784;9.174;2022-12-07T08:47:20;6.10;88.90
7562;DHT22;3822;48.784;9.174;2022-12-07T08:49:48;6.10;88.80
7562;DHT22;3822;48.784;9.174;2022-12-07T08:52:16;6.30;88.70
7562;DHT22;3822;48.784;9.174;2022-12-07T08:54:44;6.20;88.70
7562;DHT22;3822;48.784;9.174;2022-12-07T08:57:11;6.30;88.90
7562;DHT22;3822;48.784;9.174;2022-12-07T08:59:38;7.30;89.80
7562;DHT22;3822;48.784;9.174;2022-12-07T09:02:06;6.50;89.00
7562;DHT22;3822;48.784;9.174;2022-12-07T09:04:32;6.90;89.30
7562;DHT22;3822;48.784;9.174;2022-12-07T09:06:59;7.10;89.40
7562;DHT22;3822;48.784;9.174;2022-12-07T09:09:25;6.40;88.80
7562;DHT22;3822;48.784;9.174;2022-12-07T09:11:52;6.50;88.70
7562;DHT22;3822;48.784;9.174;2022-12-07T09:14:18;6.50;88.70
7562;DHT22;3822;48.784;9.174;2022-12-07T09:16:45;6.50;88.50
7562;DHT22;3822;48.784;9.174;2022-12-07T09:19:12;6.60;88.10
7562;DHT22;3822;48.784;9.174;2022-12-07T09:21:38;6.60;88.10
7562;DHT22;3822;48.784;9.174;2022-12-07T09:24:05;6.60;87.80
7562;DHT22;3822;48.784;9.174;2022-12-07T09:26:32;6.60;87.70
7562;DHT22;3822;48.784;9.174;2022-12-07T09:28:58;6.60;87.40
7562;DHT22;3822;48.784;9.174;2022-12-07T09:31:25;6.50;87.20
7562;DHT22;3822;48.784;9.174;2022-12-07T09:33:59;6.70;87.50
7562;DHT22;3822;48.784;9.174;2022-12-07T09:36:27;6.60;87.50
7562;DHT22;3822;48.784;9.174;2022-12-07T09:38:55;6.60;87.70
7562;DHT22;3822;48.784;9.174;2022-12-07T09:41:27;6.60;87.60
7562;DHT22;3822;48.784;9.174;2022-12-07T09:44:06;6.60;87.50
7562;DHT22;3822;48.784;9.174;2022-12-07T09:46:39;6.60;87.50
7562;DHT22;3822;48.784;9.174;2022-12-07T09:49:23;6.70;87.60
7562;DHT22;3822;48.784;9.174;2022-12-07T09:54:36;6.80;87.70
7562;DHT22;3822;48.784;9.174;2022-12-07T09:57:10;6.80;87.70
7562;DHT22;3822;48.784;9.174;2022-12-07T09:59:39;6.90;87.80
7562;DHT22;3822;48.784;9.174;2022-12-07T10:02:40;6.90;87.80
7562;DHT22;3822;48.784;9.174;2022-12-07T10:05:18;7.00;88.10
7562;DHT22;3822;48.784;9.174;2022-12-07T10:07:47;7.00;87.40
7562;DHT22;3822;48.784;9.174;2022-12-07T10:10:19;7.80;88.00
7562;DHT22;3822;48.784;9.174;2022-12-07T10:13:12;7.00;87.40
7562;DHT22;3822;48.784;9.174;2022-12-07T10:15:55;7.00;87.20
7562;DHT22;3822;48.784;9.174;2022-12-07T10:21:25;7.00;87.40
7562;DHT22;3822;48.784;9.174;2022-12-07T10:24:04;7.00;87.40
7562;DHT22;3822;48.784;9.174;2022-12-07T10:29:30;7.00;87.60
7562;DHT22;3822;48.784;9.174;2022-12-07T10:32:03;7.00;87.70
7562;DHT22;3822;48.784;9.174;2022-12-07T10:34:37;7.00;87.80
7562;DHT22;3822;48.784;9.174;2022-12-07T10:39:53;7.10;88.10
7562;DHT22;3822;48.784;9.174;2022-12-07T10:42:26;7.10;88.30
7562;DHT22;3822;48.784;9.174;2022-12-07T10:45:15;7.30;88.40
7562;DHT22;3822;48.784;9.174;2022-12-07T10:56:21;7.30;88.10
7562;DHT22;3822;48.784;9.174;2022-12-07T11:04:43;7.30;88.10
7562;DHT22;3822;48.784;9.174;2022-12-07T11:10:37;7.20;88.40
7562;DHT22;3822;48.784;9.174;2022-12-07T11:16:21;7.30;88.60
7562;DHT22;3822;48.784;9.174;2022-12-07T11:19:20;7.20;88.50
7562;DHT22;3822;48.784;9.174;2022-12-07T11:22:20;7.20;89.10
7562;DHT22;3822;48.784;9.174;2022-12-07T11:25:02;7.20;89.30
7562;DHT22;3822;48.784;9.174;2022-12-07T11:30:40;7.30;89.30
7562;DHT22;3822;48.784;9.174;2022-12-07T11:33:53;7.30;89.30
7562;DHT22;3822;48.784;9.174;2022-12-07T11:36:50;7.30;89.30
7562;DHT22;3822;48.784;9.174;2022-12-07T11:41:47;7.40;89.50
7562;DHT22;3822;48.784;9.174;2022-12-07T11:47:29;7.40;89.50
7562;DHT22;3822;48.784;9.174;2022-12-07T11:50:36;7.40;89.50
7562;DHT22;3822;48.784;9.174;2022-12-07T11:53:17;7.40;89.60
7562;DHT22;3822;48.784;9.174;2022-12-07T11:55:50;7.50;89.60
7562;DHT22;3822;48.784;9.174;2022-12-07T11:58:42;7.50;89.70
7562;DHT22;3822;48.784;9.174;2022-12-07T12:04:30;7.50;90.10
7562;DHT22;3822;48.784;9.174;2022-12-07T12:07:03;7.30;90.40
7562;DHT22;3822;48.784;9.174;2022-12-07T12:09:51;7.20;90.50
7562;DHT22;3822;48.784;9.174;2022-12-07T12:18:27;7.20;90.60
7562;DHT22;3822;48.784;9.174;2022-12-07T12:21:29;7.20;90.60
7562;DHT22;3822;48.784;9.174;2022-12-07T12:24:03;7.10;90.60
7562;DHT22;3822;48.784;9.174;2022-12-07T12:26:36;7.10;90.70
7562;DHT22;3822;48.784;9.174;2022-12-07T12:29:07;7.10;90.70
7562;DHT22;3822;48.784;9.174;2022-12-07T12:32:08;7.10;90.70
7562;DHT22;3822;48.784;9.174;2022-12-07T12:55:11;7.00;90.70
7562;DHT22;3822;48.784;9.174;2022-12-07T12:57:39;7.00;90.70
7562;DHT22;3822;48.784;9.174;2022-12-07T13:00:23;7.00;90.70
7562;DHT22;3822;48.784;9.174;2022-12-07T13:02:55;6.90;90.70
7562;DHT22;3822;48.784;9.174;2022-12-07T13:05:25;7.00;90.80
7562;DHT22;3822;48.784;9.174;2022-12-07T13:10:47;7.00;90.70
7562;DHT22;3822;48.784;9.174;2022-12-07T13:26:20;7.00;90.70
7562;DHT22;3822;48.784;9.174;2022-12-07T13:28:51;7.00;90.70
7562;DHT22;3822;48.784;9.174;2022-12-07T13:33:59;7.00;90.50
7562;DHT22;3822;48.784;9.174;2022-12-07T13:36:37;7.00;90.50
7562;DHT22;3822;48.784;9.174;2022-12-07T13:39:18;7.00;90.50
7562;DHT22;3822;48.784;9.174;2022-12-07T13:41:56;7.00;90.50
7562;DHT22;3822;48.784;9.174;2022-12-07T13:44:27;6.90;90.40
7562;DHT22;3822;48.784;9.174;2022-12-07T13:46:59;7.10;90.50
7562;DHT22;3822;48.784;9.174;2022-12-07T13:49:47;7.00;90.50
7562;DHT22;3822;48.784;9.174;2022-12-07T13:55:16;7.00;90.50
7562;DHT22;3822;48.784;9.174;2022-12-07T13:57:47;7.00;90.50
7562;DHT22;3822;48.784;9.174;2022-12-07T14:00:22;7.10;90.50
7562;DHT22;3822;48.784;9.174;2022-12-07T14:03:02;7.10;90.50
7562;DHT22;3822;48.784;9.174;2022-12-07T14:05:34;7.90;90.80
7562;DHT22;3822;48.784;9.174;2022-12-07T14:10:33;7.10;90.50
7562;DHT22;3822;48.784;9.174;2022-12-07T14:13:02;7.10;90.40
7562;DHT22;3822;48.784;9.174;2022-12-07T14:15:43;7.10;90.50
7562;DHT22;3822;48.784;9.174;2022-12-07T14:18:40;7.20;90.50
7562;DHT22;3822;48.784;9.174;2022-12-07T14:23:38;7.20;90.50
7562;DHT22;3822;48.784;9.174;2022-12-07T14:26:15;7.20;90.50
7562;DHT22;3822;48.784;9.174;2022-12-07T14:28:46;7.30;90.50
7562;DHT22;3822;48.784;9.174;2022-12-07T14:31:18;7.30;90.50
7562;DHT22;3822;48.784;9.174;2022-12-07T14:33:47;7.60;90.70
7562;DHT22;3822;48.784;9.174;2022-12-07T14:36:14;7.30;90.40
7562;DHT22;3822;48.784;9.174;2022-12-07T14:38:41;7.30;90.40
7562;DHT22;3822;48.784;9.174;2022-12-07T14:41:15;7.30;90.30
7562;DHT22;3822;48.784;9.174;2022-12-07T14:44:06;7.30;90.30
7562;DHT22;3822;48.784;9.174;2022-12-07T14:46:35;7.30;90.30
7562;DHT22;3822;48.784;9.174;2022-12-07T14:49:02;7.60;90.40
7562;DHT22;3822;48.784;9.174;2022-12-07T14:51:28;7.30;90.40
7562;DHT22;3822;48.784;9.174;2022-12-07T14:53:55;7.30;90.40
7562;DHT22;3822;48.784;9.174;2022-12-07T14:56:21;7.40;90.40
7562;DHT22;3822;48.784;9.174;2022-12-07T14:58:48;7.40;90.40
7562;DHT22;3822;48.784;9.174;2022-12-07T15:01:14;7.40;90.40
7562;DHT22;3822;48.784;9.174;2022-12-07T15:03:42;7.40;90.40
7562;DHT22;3822;48.784;9.174;2022-12-07T15:06:16;7.40;90.40
7562;DHT22;3822;48.784;9.174;2022-12-07T15:08:43;7.40;90.30
7562;DHT22;3822;48.784;9.174;2022-12-07T15:11:14;7.70;90.50
7562;DHT22;3822;48.784;9.174;2022-12-07T15:13:41;7.30;90.30
7562;DHT22;3822;48.784;9.174;2022-12-07T15:16:26;7.30;90.30
7562;DHT22;3822;48.784;9.174;2022-12-07T15:18:52;7.30;90.30
7562;DHT22;3822;48.784;9.174;2022-12-07T15:21:20;7.30;90.30
7562;DHT22;3822;48.784;9.174;2022-12-07T15:23:47;7.40;90.40
7562;DHT22;3822;48.784;9.174;2022-12-07T15:26:13;7.90;90.70
7562;DHT22;3822;48.784;9.174;2022-12-07T15:28:44;7.20;90.40
7562;DHT22;3822;48.784;9.174;2022-12-07T15:31:15;7.20;90.40
7562;DHT22;3822;48.784;9.174;2022-12-07T15:33:43;7.20;90.40
7562;DHT22;3822;48.784;9.174;2022-12-07T15:36:21;7.20;90.40
7562;DHT22;3822;48.784;9.174;2022-12-07T15:38:50;7.10;90.30
7562;DHT22;3822;48.784;9.174;2022-12-07T15:41:18;7.10;90.40
7562;DHT22;3822;48.784;9.174;2022-12-07T15:43:45;7.10;90.40
7562;DHT22;3822;48.784;9.174;2022-12-07T15:46:36;7.10;90.40
7562;DHT22;3822;48.784;9.174;2022-12-07T15:49:10;7.10;90.40
7562;DHT22;3822;48.784;9.174;2022-12-07T15:51:39;7.00;90.40
7562;DHT22;3822;48.784;9.174;2022-12-07T15:54:07;7.00;90.40
7562;DHT22;3822;48.784;9.174;2022-12-07T15:56:34;6.90;90.30
7562;DHT22;3822;48.784;9.174;2022-12-07T15:59:01;7.00;90.40
7562;DHT22;3822;48.784;9.174;2022-12-07T16:01:28;6.80;90.40
7562;DHT22;3822;48.784;9.174;2022-12-07T16:03:57;7.30;90.60
7562;DHT22;3822;48.784;9.174;2022-12-07T16:06:24;6.70;90.40
7562;DHT22;3822;48.784;9.174;2022-12-07T16:08:50;6.60;90.40
7562;DHT22;3822;48.784;9.174;2022-12-07T16:11:17;6.60;90.50
7562;DHT22;3822;48.784;9.174;2022-12-07T16:13:43;7.30;90.80
7562;DHT22;3822;48.784;9.174;2022-12-07T16:16:13;6.50;90.60
7562;DHT22;3822;48.784;9.174;2022-12-07T16:18:42;6.50;90.70
7562;DHT22;3822;48.784;9.174;2022-12-07T16:21:09;6.40;90.70
7562;DHT22;3822;48.784;9.174;2022-12-07T16:23:36;6.40;90.70
7562;DHT22;3822;48.784;9.174;2022-12-07T16:26:08;6.40;90.70
7562;DHT22;3822;48.784;9.174;2022-12-07T16:28:40;6.40;90.70
7562;DHT22;3822;48.784;9.174;2022-12-07T16:31:09;6.40;90.80
7562;DHT22;3822;48.784;9.174;2022-12-07T16:33:38;6.40;90.80
7562;DHT22;3822;48.784;9.174;2022-12-07T16:36:08;6.40;90.80
7562;DHT22;3822;48.784;9.174;2022-12-07T16:38:36;6.40;90.90
7562;DHT22;3822;48.784;9.174;2022-12-07T16:41:05;6.40;90.80
7562;DHT22;3822;48.784;9.174;2022-12-07T16:43:32;7.30;91.20
7562;DHT22;3822;48.784;9.174;2022-12-07T16:45:59;7.40;91.20
7562;DHT22;3822;48.784;9.174;2022-12-07T16:48:26;6.50;90.80
7562;DHT22;3822;48.784;9.174;2022-12-07T16:50:53;6.50;91.00
7562;DHT22;3822;48.784;9.174;2022-12-07T16:53:21;6.50;90.60
7562;DHT22;3822;48.784;9.174;2022-12-07T16:55:48;6.40;90.60
7562;DHT22;3822;48.784;9.174;2022-12-07T16:58:36;6.80;90.70
7562;DHT22;3822;48.784;9.174;2022-12-07T17:01:13;6.40;90.60
7562;DHT22;3822;48.784;9.174;2022-12-07T17:03:41;6.30;90.50
7562;DHT22;3822;48.784;9.174;2022-12-07T17:06:21;7.00;90.80
7562;DHT22;3822;48.784;9.174;2022-12-07T17:08:49;7.50;91.10
7562;DHT22;3822;48.784;9.174;2022-12-07T17:11:28;6.30;90.60
7562;DHT22;3822;48.784;9.174;2022-12-07T17:13:58;6.30;90.60
7562;DHT22;3822;48.784;9.174;2022-12-07T17:16:43;6.30;90.50
7562;DHT22;3822;48.784;9.174;2022-12-07T17:19:12;6.80;90.60
7562;DHT22;3822;48.784;9.174;2022-12-07T17:21:41;6.20;90.40
7562;DHT22;3822;48.784;9.174;2022-12-07T17:24:12;6.10;90.40
7562;DHT22;3822;48.784;9.174;2022-12-07T17:26:39;6.10;90.40
7562;DHT22;3822;48.784;9.174;2022-12-07T17:29:07;6.00;90.40
7562;DHT22;3822;48.784;9.174;2022-12-07T17:31:36;6.20;90.60
7562;DHT22;3822;48.784;9.174;2022-12-07T17:34:03;6.70;90.80
7562;DHT22;3822;48.784;9.174;2022-12-07T17:36:31;6.00;90.50
7562;DHT22;3822;48.784;9.174;2022-12-07T17:38:58;6.00;90.50
7562;DHT22;3822;48.784;9.174;2022-12-07T17:41:28;6.00;90.50
7562;DHT22;3822;48.784;9.174;2022-12-07T17:44:15;5.90;90.50
7562;DHT22;3822;48.784;9.174;2022-12-07T17:46:46;6.60;90.90
7562;DHT22;3822;48.784;9.174;2022-12-07T17:49:13;5.90;90.70
7562;DHT22;3822;48.784;9.174;2022-12-07T17:51:43;5.90;90.70
7562;DHT22;3822;48.784;9.174;2022-12-07T17:54:28;5.90;90.80
7562;DHT22;3822;48.784;9.174;2022-12-07T17:56:55;5.90;90.80
7562;DHT22;3822;48.784;9.174;2022-12-07T17:59:22;6.10;90.90
7562;DHT22;3822;48.784;9.174;2022-12-07T18:02:08;5.90;90.80
7562;DHT22;3822;48.784;9.174;2022-12-07T18:04:36;5.90;90.90
7562;DHT22;3822;48.784;9.174;2022-12-07T18:07:02;5.90;90.80
7562;DHT22;3822;48.784;9.174;2022-12-07T18:09:31;5.90;90.90
7562;DHT22;3822;48.784;9.174;2022-12-07T18:11:58;6.00;90.90
7562;DHT22;3822;48.784;9.174;2022-12-07T18:14:24;5.90;90.90
7562;DHT22;3822;48.784;9.174;2022-12-07T18:16:52;6.00;91.00
7562;DHT22;3822;48.784;9.174;2022-12-07T18:19:18;6.00;91.00
7562;DHT22;3822;48.784;9.174;2022-12-07T18:21:46;6.00;91.00
7562;DHT22;3822;48.784;9.174;2022-12-07T18:24:15;6.00;91.00
7562;DHT22;3822;48.784;9.174;2022-12-07T18:26:43;6.10;91.10
7562;DHT22;3822;48.784;9.174;2022-12-07T18:29:13;6.10;91.00
7562;DHT22;3822;48.784;9.174;2022-12-07T18:31:41;6.10;91.00
7562;DHT22;3822;48.784;9.174;2022-12-07T18:34:10;6.10;91.00
7562;DHT22;3822;48.784;9.174;2022-12-07T18:36:41;6.10;91.00
7562;DHT22;3822;48.784;9.174;2022-12-07T18:39:12;6.30;91.00
7562;DHT22;3822;48.784;9.174;2022-12-07T18:41:39;6.10;90.90
7562;DHT22;3822;48.784;9.174;2022-12-07T18:44:06;6.10;90.90
7562;DHT22;3822;48.784;9.174;2022-12-07T18:46:33;6.10;90.90